Time,TemperatureF,DewpointF,PressureIn,WindDirection,WindDirectionDegrees,WindSpeedMPH,WindSpeedGustMPH,Humidity,HourlyPrecipIn,Conditions,Clouds,dailyrainin,SoftwareType,DateUTC
2013-06-11 00:05:00,59.0,59.0,29.81,WSW,247,0.0,0.0,100,0.60,,,0.01,TxWx,2013-06-11 04:05:00,
2013-06-11 00:10:00,59.0,59.0,29.81,WSW,247,0.0,0.0,100,0.60,,,0.02,TxWx,2013-06-11 04:10:00,
2013-06-11 00:16:00,59.0,59.0,29.80,WSW,247,0.0,0.0,100,0.60,,,0.04,TxWx,2013-06-11 04:16:00,
2013-06-11 00:21:00,59.0,59.0,29.80,WSW,247,0.0,0.0,100,0.60,,,0.07,TxWx,2013-06-11 04:21:00,
2013-06-11 00:26:00,59.0,59.0,29.80,WSW,247,0.0,0.0,100,0.60,,,0.09,TxWx,2013-06-11 04:26:00,
2013-06-11 00:31:00,59.0,59.0,29.80,WSW,247,0.0,0.0,100,0.60,,,0.10,TxWx,2013-06-11 04:31:00,
2013-06-11 00:36:00,59.0,59.0,29.79,WSW,247,0.0,0.0,100,0.60,,,0.12,TxWx,2013-06-11 04:36:00,
2013-06-11 00:42:00,59.0,59.0,29.79,WSW,247,0.0,0.0,100,0.60,,,0.14,TxWx,2013-06-11 04:42:00,
2013-06-11 00:47:00,59.0,59.0,29.79,WSW,247,0.0,0.0,100,0.60,,,0.16,TxWx,2013-06-11 04:47:00,
2013-06-11 00:52:00,59.0,59.0,29.79,WSW,247,0.0,0.0,100,0.60,,,0.17,TxWx,2013-06-11 04:52:00,
2013-06-11 00:57:00,59.0,59.0,29.80,WSW,247,0.0,0.0,100,0.60,,,0.19,TxWx,2013-06-11 04:57:00,
2013-06-11 01:02:00,58.0,58.0,29.79,WSW,247,0.0,0.0,100,0.60,,,0.21,TxWx,2013-06-11 05:02:00,
2013-06-11 01:07:00,59.0,59.0,29.79,WSW,247,0.0,0.0,100,0.60,,,0.22,TxWx,2013-06-11 05:07:00,
2013-06-11 01:12:00,59.0,59.0,29.79,WSW,247,0.0,0.0,100,0.60,,,0.26,TxWx,2013-06-11 05:12:00,
2013-06-11 01:17:00,58.0,58.0,29.79,WSW,247,0.0,0.0,100,0.60,,,0.28,TxWx,2013-06-11 05:17:00,
2013-06-11 01:22:00,58.0,58.0,29.79,WSW,247,0.0,0.0,100,0.60,,,0.29,TxWx,2013-06-11 05:22:00,
2013-06-11 01:27:00,58.0,58.0,29.79,WSW,247,0.0,0.0,100,0.60,,,0.30,TxWx,2013-06-11 05:27:00,
2013-06-11 01:32:00,58.0,58.0,29.79,WSW,247,0.0,0.0,100,0.60,,,0.30,TxWx,2013-06-11 05:32:00,
2013-06-11 01:37:00,58.0,58.0,29.78,WSW,247,0.0,0.0,100,0.60,,,0.31,TxWx,2013-06-11 05:37:00,
2013-06-11 01:42:00,58.0,58.0,29.78,WSW,247,0.0,0.0,100,0.60,,,0.32,TxWx,2013-06-11 05:42:00,
2013-06-11 01:47:00,58.0,58.0,29.77,WSW,247,0.0,0.0,100,0.60,,,0.34,TxWx,2013-06-11 05:47:00,
2013-06-11 01:52:00,58.0,58.0,29.77,WSW,247,0.0,0.0,100,0.60,,,0.35,TxWx,2013-06-11 05:52:00,
2013-06-11 02:01:00,58.0,58.0,29.75,WSW,247,0.0,0.0,100,0.60,,,0.36,TxWx,2013-06-11 06:01:00,
2013-06-11 02:05:00,58.0,58.0,29.75,WSW,247,0.0,0.0,100,0.60,,,0.37,TxWx,2013-06-11 06:05:00,
2013-06-11 02:10:00,58.0,58.0,29.75,WSW,247,0.0,0.0,100,0.60,,,0.38,TxWx,2013-06-11 06:10:00,
2013-06-11 02:19:00,58.0,58.0,29.75,WSW,247,0.0,0.0,100,0.60,,,0.40,TxWx,2013-06-11 06:19:00,
2013-06-11 02:24:00,58.0,58.0,29.75,WSW,247,0.0,0.0,100,0.60,,,0.40,TxWx,2013-06-11 06:24:00,
2013-06-11 02:29:00,58.0,58.0,29.74,WSW,247,0.0,0.0,100,0.60,,,0.41,TxWx,2013-06-11 06:29:00,
2013-06-11 02:34:00,58.0,58.0,29.74,WSW,247,0.0,0.0,100,0.60,,,0.42,TxWx,2013-06-11 06:34:00,
2013-06-11 02:39:00,59.0,59.0,29.73,WSW,247,0.0,0.0,100,0.60,,,0.42,TxWx,2013-06-11 06:39:00,
2013-06-11 02:44:00,59.0,59.0,29.73,WSW,247,0.0,0.0,100,0.60,,,0.42,TxWx,2013-06-11 06:44:00,
2013-06-11 02:49:00,58.0,58.0,29.73,WSW,247,0.0,0.0,100,0.60,,,0.42,TxWx,2013-06-11 06:49:00,
2013-06-11 02:54:00,59.0,59.0,29.73,WSW,247,0.0,0.0,100,0.00,,,0.42,TxWx,2013-06-11 06:54:00,
2013-06-11 03:00:00,58.0,58.0,29.73,WSW,247,0.0,0.0,100,0.00,,,0.42,TxWx,2013-06-11 07:00:00,
2013-06-11 03:05:00,59.0,59.0,29.73,WSW,247,0.0,0.0,100,0.00,,,0.42,TxWx,2013-06-11 07:05:00,
2013-06-11 03:10:00,58.0,58.0,29.73,WSW,247,0.0,0.0,100,0.00,,,0.43,TxWx,2013-06-11 07:10:00,
2013-06-11 03:15:00,58.0,58.0,29.72,WSW,247,0.0,0.0,100,0.60,,,0.43,TxWx,2013-06-11 07:15:00,
2013-06-11 03:16:00,63.0,63.0,29.60,WSW,247,0.0,0.0,100,0.00,,,0.75,TxWx,2013-06-11 07:16:00,
2013-06-11 03:17:00,63.0,63.0,29.60,WSW,247,0.0,0.0,100,0.00,,,0.75,TxWx,2013-06-11 07:17:00,
2013-06-11 03:18:00,63.0,63.0,29.60,WSW,247,0.0,0.0,100,0.00,,,0.75,TxWx,2013-06-11 07:18:00,
2013-06-11 03:19:00,63.0,63.0,29.60,WSW,247,0.0,0.0,100,0.00,,,0.75,TxWx,2013-06-11 07:19:00,
2013-06-11 03:20:00,58.0,58.0,29.72,WSW,247,0.0,0.0,100,0.00,,,0.43,TxWx,2013-06-11 07:20:00,
2013-06-11 03:25:00,58.0,58.0,29.72,WSW,247,0.0,0.0,100,0.00,,,0.43,TxWx,2013-06-11 07:25:00,
2013-06-11 03:30:00,58.0,58.0,29.71,WSW,247,0.0,0.0,100,0.00,,,0.43,TxWx,2013-06-11 07:30:00,
2013-06-11 03:35:00,58.0,58.0,29.71,WSW,247,0.0,0.0,100,0.00,,,0.44,TxWx,2013-06-11 07:35:00,
2013-06-11 03:40:00,58.0,58.0,29.71,WSW,247,0.0,0.0,100,0.60,,,0.44,TxWx,2013-06-11 07:40:00,
2013-06-11 03:45:00,58.0,58.0,29.71,WSW,247,0.0,0.0,100,0.60,,,0.44,TxWx,2013-06-11 07:45:00,
2013-06-11 03:50:00,58.0,58.0,29.70,WSW,247,0.0,0.0,100,0.00,,,0.44,TxWx,2013-06-11 07:50:00,
2013-06-11 03:55:00,58.0,58.0,29.70,WSW,247,0.0,0.0,100,0.00,,,0.45,TxWx,2013-06-11 07:55:00,
2013-06-11 04:00:00,58.0,58.0,29.70,WSW,247,0.0,0.0,100,0.60,,,0.45,TxWx,2013-06-11 08:00:00,
2013-06-11 04:05:00,58.0,58.0,29.69,WSW,247,0.0,0.0,100,0.60,,,0.45,TxWx,2013-06-11 08:05:00,
2013-06-11 04:10:00,58.0,58.0,29.69,WSW,247,0.0,0.0,100,0.60,,,0.46,TxWx,2013-06-11 08:10:00,
2013-06-11 04:16:00,58.0,58.0,29.69,WSW,247,0.0,0.0,100,0.60,,,0.46,TxWx,2013-06-11 08:16:00,
2013-06-11 04:21:00,58.0,58.0,29.68,WSW,247,0.0,0.0,100,0.00,,,0.46,TxWx,2013-06-11 08:21:00,
2013-06-11 04:26:00,58.0,58.0,29.68,WSW,247,0.0,0.0,100,0.00,,,0.47,TxWx,2013-06-11 08:26:00,
2013-06-11 04:31:00,58.0,58.0,29.68,WSW,247,0.0,0.0,100,0.60,,,0.47,TxWx,2013-06-11 08:31:00,
2013-06-11 04:36:00,58.0,58.0,29.68,WSW,247,0.0,0.0,100,0.60,,,0.47,TxWx,2013-06-11 08:36:00,
2013-06-11 04:41:00,58.0,58.0,29.67,WSW,247,0.0,0.0,100,0.00,,,0.47,TxWx,2013-06-11 08:41:00,
2013-06-11 04:46:00,58.0,58.0,29.67,WSW,247,0.0,0.0,100,0.00,,,0.48,TxWx,2013-06-11 08:46:00,
2013-06-11 04:51:00,58.0,58.0,29.66,WSW,247,0.0,0.0,100,0.60,,,0.48,TxWx,2013-06-11 08:51:00,
2013-06-11 05:00:00,58.0,58.0,29.66,WSW,247,0.0,0.0,100,0.00,,,0.48,TxWx,2013-06-11 09:00:00,
2013-06-11 05:05:00,58.0,58.0,29.66,WSW,247,0.0,0.0,100,0.00,,,0.48,TxWx,2013-06-11 09:05:00,
2013-06-11 05:10:00,58.0,58.0,29.66,WSW,247,0.0,0.0,100,0.00,,,0.48,TxWx,2013-06-11 09:10:00,
2013-06-11 05:15:00,58.0,58.0,29.65,WSW,247,0.0,0.0,100,0.00,,,0.48,TxWx,2013-06-11 09:15:00,
2013-06-11 05:20:00,58.0,58.0,29.65,WSW,247,0.0,0.0,100,0.00,,,0.48,TxWx,2013-06-11 09:20:00,
2013-06-11 05:25:00,58.0,58.0,29.65,WSW,247,0.0,0.0,100,0.00,,,0.50,TxWx,2013-06-11 09:25:00,
2013-06-11 05:31:00,58.0,58.0,29.66,WSW,247,0.0,0.0,100,0.60,,,0.51,TxWx,2013-06-11 09:31:00,
2013-06-11 05:36:00,57.0,57.0,29.66,WSW,247,0.0,0.0,100,0.60,,,0.52,TxWx,2013-06-11 09:36:00,
2013-06-11 05:41:00,57.0,57.0,29.66,WSW,247,0.0,0.0,100,0.60,,,0.54,TxWx,2013-06-11 09:41:00,
2013-06-11 05:46:00,57.0,57.0,29.66,WSW,247,0.0,0.0,100,0.60,,,0.56,TxWx,2013-06-11 09:46:00,
2013-06-11 05:51:00,57.0,57.0,29.67,WSW,247,0.0,0.0,100,0.60,,,0.57,TxWx,2013-06-11 09:51:00,
2013-06-11 05:56:00,57.0,57.0,29.67,WSW,247,0.0,0.0,100,0.60,,,0.58,TxWx,2013-06-11 09:56:00,
2013-06-11 06:01:00,57.0,57.0,29.66,WSW,247,0.0,0.0,100,0.60,,,0.59,TxWx,2013-06-11 10:01:00,
2013-06-11 06:06:00,57.0,57.0,29.67,WSW,247,0.0,0.0,100,0.60,,,0.60,TxWx,2013-06-11 10:06:00,
2013-06-11 06:11:00,57.0,57.0,29.67,WSW,247,0.0,0.0,100,0.60,,,0.61,TxWx,2013-06-11 10:11:00,
2013-06-11 06:16:00,57.0,57.0,29.67,WSW,247,0.0,0.0,100,0.60,,,0.62,TxWx,2013-06-11 10:16:00,
2013-06-11 06:21:00,57.0,57.0,29.67,WSW,247,0.0,0.0,100,0.60,,,0.63,TxWx,2013-06-11 10:21:00,
2013-06-11 06:26:00,57.0,57.0,29.67,WSW,247,0.0,0.0,100,0.60,,,0.63,TxWx,2013-06-11 10:26:00,
2013-06-11 06:31:00,57.0,57.0,29.67,WSW,247,0.0,0.0,100,0.60,,,0.64,TxWx,2013-06-11 10:31:00,
2013-06-11 06:36:00,57.0,57.0,29.68,WSW,247,0.0,0.0,100,0.60,,,0.65,TxWx,2013-06-11 10:36:00,
2013-06-11 06:42:00,57.0,57.0,29.68,WSW,247,0.0,0.0,100,0.60,,,0.65,TxWx,2013-06-11 10:42:00,
2013-06-11 06:47:00,57.0,57.0,29.67,WSW,247,0.0,0.0,100,0.60,,,0.66,TxWx,2013-06-11 10:47:00,
2013-06-11 06:52:00,57.0,57.0,29.67,WSW,247,0.0,0.0,100,0.60,,,0.66,TxWx,2013-06-11 10:52:00,
2013-06-11 06:57:00,57.0,57.0,29.67,WSW,247,0.0,0.0,100,0.60,,,0.66,TxWx,2013-06-11 10:57:00,
2013-06-11 07:02:00,57.0,57.0,29.67,WSW,247,0.0,0.0,100,0.60,,,0.67,TxWx,2013-06-11 11:02:00,
2013-06-11 07:07:00,57.0,57.0,29.67,WSW,247,0.0,0.0,100,0.60,,,0.68,TxWx,2013-06-11 11:07:00,
2013-06-11 07:12:00,57.0,57.0,29.67,WSW,247,0.0,0.0,100,0.60,,,0.68,TxWx,2013-06-11 11:12:00,
2013-06-11 07:17:00,57.0,57.0,29.68,WSW,247,0.0,0.0,100,0.60,,,0.68,TxWx,2013-06-11 11:17:00,
2013-06-11 07:22:00,57.0,57.0,29.67,WSW,247,0.0,0.0,100,0.00,,,0.68,TxWx,2013-06-11 11:22:00,
2013-06-11 07:27:00,57.0,57.0,29.68,WSW,247,0.0,0.0,100,0.00,,,0.69,TxWx,2013-06-11 11:27:00,
2013-06-11 07:32:00,57.0,57.0,29.67,WSW,247,0.0,0.0,100,0.60,,,0.69,TxWx,2013-06-11 11:32:00,
2013-06-11 07:37:00,57.0,57.0,29.67,WSW,247,0.0,0.0,100,0.60,,,0.69,TxWx,2013-06-11 11:37:00,
2013-06-11 07:42:00,57.0,57.0,29.67,WSW,247,0.0,0.0,100,0.00,,,0.69,TxWx,2013-06-11 11:42:00,
2013-06-11 07:47:00,57.0,57.0,29.67,WSW,247,0.0,0.0,100,0.00,,,0.71,TxWx,2013-06-11 11:47:00,
2013-06-11 07:52:00,57.0,57.0,29.67,WSW,247,0.0,0.0,100,0.60,,,0.72,TxWx,2013-06-11 11:52:00,
2013-06-11 07:58:00,57.0,57.0,29.67,WSW,247,0.0,0.0,100,0.60,,,0.72,TxWx,2013-06-11 11:58:00,
2013-06-11 08:03:00,57.0,57.0,29.67,WSW,247,0.0,0.0,100,0.60,,,0.72,TxWx,2013-06-11 12:03:00,
2013-06-11 08:08:00,57.0,57.0,29.67,WSW,247,0.0,0.0,100,0.60,,,0.73,TxWx,2013-06-11 12:08:00,
2013-06-11 08:11:00,62.0,62.0,29.55,WSW,247,0.0,0.0,100,0.60,,,1.15,TxWx,2013-06-11 12:11:00,
2013-06-11 08:12:00,62.0,62.0,29.55,WSW,247,0.0,0.0,100,0.60,,,1.15,TxWx,2013-06-11 12:12:00,
2013-06-11 08:13:00,57.0,57.0,29.67,WSW,247,0.0,0.0,100,0.60,,,0.73,TxWx,2013-06-11 12:13:00,
2013-06-11 08:14:00,62.0,62.0,29.55,WSW,247,0.0,0.0,100,0.60,,,1.15,TxWx,2013-06-11 12:14:00,
2013-06-11 08:15:00,62.0,62.0,29.55,WSW,247,0.0,0.0,100,0.60,,,1.15,TxWx,2013-06-11 12:15:00,
2013-06-11 08:18:00,57.0,57.0,29.66,WSW,247,0.0,0.0,100,0.60,,,0.74,TxWx,2013-06-11 12:18:00,
2013-06-11 08:23:00,58.0,58.0,29.66,WSW,247,0.0,0.0,100,0.60,,,0.74,TxWx,2013-06-11 12:23:00,
2013-06-11 08:28:00,58.0,58.0,29.65,WSW,247,0.0,0.0,100,0.60,,,0.74,TxWx,2013-06-11 12:28:00,
2013-06-11 08:33:00,58.0,58.0,29.66,WSW,247,0.0,0.0,100,0.00,,,0.74,TxWx,2013-06-11 12:33:00,
2013-06-11 08:38:00,58.0,58.0,29.66,WSW,247,0.0,0.0,100,0.00,,,0.74,TxWx,2013-06-11 12:38:00,
2013-06-11 08:43:00,58.0,58.0,29.66,WSW,247,0.0,0.0,100,0.00,,,0.74,TxWx,2013-06-11 12:43:00,
2013-06-11 08:48:00,58.0,58.0,29.66,WSW,247,0.0,0.0,100,0.00,,,0.74,TxWx,2013-06-11 12:48:00,
2013-06-11 08:53:00,58.0,58.0,29.66,WSW,247,0.0,0.0,100,0.00,,,0.74,TxWx,2013-06-11 12:53:00,
2013-06-11 08:59:00,58.0,58.0,29.65,WSW,247,0.0,0.0,100,0.00,,,0.74,TxWx,2013-06-11 12:59:00,
2013-06-11 09:04:00,58.0,58.0,29.65,WSW,247,0.0,0.0,100,0.00,,,0.74,TxWx,2013-06-11 13:04:00,
2013-06-11 09:09:00,58.0,58.0,29.65,WSW,247,0.0,0.0,100,0.00,,,0.74,TxWx,2013-06-11 13:09:00,
2013-06-11 09:14:00,58.0,58.0,29.64,WSW,247,0.0,0.0,100,0.00,,,0.74,TxWx,2013-06-11 13:14:00,
2013-06-11 09:19:00,59.0,59.0,29.64,WSW,247,0.0,0.0,100,0.00,,,0.75,TxWx,2013-06-11 13:19:00,
2013-06-11 09:24:00,59.0,59.0,29.64,WSW,247,0.0,0.0,100,0.60,,,0.75,TxWx,2013-06-11 13:24:00,
2013-06-11 09:29:00,59.0,59.0,29.64,WSW,247,0.0,0.0,100,0.60,,,0.75,TxWx,2013-06-11 13:29:00,
2013-06-11 09:34:00,59.0,59.0,29.64,WSW,247,0.0,0.0,100,0.00,,,0.75,TxWx,2013-06-11 13:34:00,
2013-06-11 09:39:00,59.0,59.0,29.63,WSW,247,0.0,0.0,100,0.00,,,0.75,TxWx,2013-06-11 13:39:00,
2013-06-11 09:44:00,59.0,59.0,29.64,WSW,247,0.0,0.0,100,0.00,,,0.75,TxWx,2013-06-11 13:44:00,
2013-06-11 09:49:00,59.0,59.0,29.64,WSW,247,0.0,0.0,100,0.00,,,0.75,TxWx,2013-06-11 13:49:00,
2013-06-11 09:54:00,59.0,59.0,29.64,WSW,247,0.0,0.0,100,0.00,,,0.75,TxWx,2013-06-11 13:54:00,
2013-06-11 09:59:00,58.0,58.0,29.64,WSW,247,0.0,0.0,100,0.00,,,0.75,TxWx,2013-06-11 13:59:00,
2013-06-11 10:04:00,59.0,59.0,29.64,WSW,247,0.0,0.0,100,0.00,,,0.75,TxWx,2013-06-11 14:04:00,
2013-06-11 10:09:00,59.0,59.0,29.64,WSW,247,0.0,0.0,100,0.00,,,0.75,TxWx,2013-06-11 14:09:00,
2013-06-11 10:11:00,61.0,62.0,29.56,WSW,247,0.0,0.0,100,0.00,,,1.16,TxWx,2013-06-11 14:11:00,
2013-06-11 10:12:00,61.0,61.0,29.56,WSW,247,0.0,0.0,100,0.00,,,1.16,TxWx,2013-06-11 14:12:00,
2013-06-11 10:13:00,61.0,61.0,29.56,WSW,247,0.0,0.0,100,0.00,,,1.16,TxWx,2013-06-11 14:13:00,
2013-06-11 10:14:00,61.0,61.0,29.56,WSW,247,0.0,0.0,100,0.00,,,1.16,TxWx,2013-06-11 14:14:00,
2013-06-11 10:15:00,59.0,59.0,29.63,WSW,247,0.0,0.0,100,0.00,,,0.75,TxWx,2013-06-11 14:15:00,
2013-06-11 10:20:00,59.0,59.0,29.63,WSW,247,0.0,0.0,100,0.00,,,0.75,TxWx,2013-06-11 14:20:00,
2013-06-11 10:25:00,59.0,59.0,29.63,WSW,247,0.0,0.0,100,0.00,,,0.75,TxWx,2013-06-11 14:25:00,
2013-06-11 10:30:00,59.0,59.0,29.63,WSW,247,0.0,0.0,100,0.00,,,0.75,TxWx,2013-06-11 14:30:00,
2013-06-11 10:31:00,61.0,61.0,29.57,WSW,247,0.0,0.0,100,0.00,,,1.16,TxWx,2013-06-11 14:31:00,
2013-06-11 10:32:00,61.0,61.0,29.57,WSW,247,0.0,0.0,100,0.00,,,1.16,TxWx,2013-06-11 14:32:00,
2013-06-11 10:33:00,61.0,61.0,29.56,WSW,247,0.0,0.0,100,0.00,,,1.16,TxWx,2013-06-11 14:33:00,
2013-06-11 10:34:00,61.0,61.0,29.57,WSW,247,0.0,0.0,100,0.00,,,1.16,TxWx,2013-06-11 14:34:00,
2013-06-11 10:35:00,59.0,59.0,29.62,WSW,247,0.0,0.0,100,0.00,,,0.75,TxWx,2013-06-11 14:35:00,
2013-06-11 10:40:00,59.0,59.0,29.63,WSW,247,0.0,0.0,100,0.00,,,0.75,TxWx,2013-06-11 14:40:00,
2013-06-11 10:45:00,59.0,59.0,29.62,WSW,247,0.0,0.0,100,0.00,,,0.75,TxWx,2013-06-11 14:45:00,
2013-06-11 10:50:00,59.0,59.0,29.62,WSW,247,0.0,0.0,100,0.00,,,0.75,TxWx,2013-06-11 14:50:00,
2013-06-11 10:55:00,59.0,59.0,29.62,WSW,247,0.0,0.0,100,0.00,,,0.75,TxWx,2013-06-11 14:55:00,
2013-06-11 11:00:00,59.0,59.0,29.62,WSW,247,0.0,0.0,100,0.00,,,0.75,TxWx,2013-06-11 15:00:00,
2013-06-11 11:05:00,60.0,60.0,29.62,WSW,247,0.0,0.0,100,0.00,,,0.75,TxWx,2013-06-11 15:05:00,
2013-06-11 11:10:00,60.0,60.0,29.62,WSW,247,0.0,0.0,100,0.00,,,0.75,TxWx,2013-06-11 15:10:00,
2013-06-11 11:15:00,60.0,60.0,29.62,WSW,247,0.0,0.0,100,0.00,,,0.75,TxWx,2013-06-11 15:15:00,
2013-06-11 11:20:00,60.0,60.0,29.62,WSW,247,0.0,0.0,100,0.00,,,0.75,TxWx,2013-06-11 15:20:00,
2013-06-11 11:26:00,61.0,61.0,29.61,WSW,247,0.0,0.0,100,0.00,,,0.75,TxWx,2013-06-11 15:26:00,
2013-06-11 11:31:00,61.0,61.0,29.61,WSW,247,0.0,0.0,100,0.00,,,0.75,TxWx,2013-06-11 15:31:00,
2013-06-11 11:36:00,62.0,62.0,29.61,WSW,247,0.0,0.0,100,0.00,,,0.75,TxWx,2013-06-11 15:36:00,
2013-06-11 11:41:00,62.0,62.0,29.61,WSW,247,0.0,0.0,100,0.00,,,0.75,TxWx,2013-06-11 15:41:00,
2013-06-11 11:46:00,62.0,62.0,29.61,WSW,247,0.0,0.0,100,0.00,,,0.75,TxWx,2013-06-11 15:46:00,
2013-06-11 11:51:00,62.0,62.0,29.61,WSW,247,0.0,0.0,100,0.00,,,0.75,TxWx,2013-06-11 15:51:00,
2013-06-11 11:56:00,62.0,62.0,29.61,WSW,247,0.0,0.0,100,0.00,,,0.75,TxWx,2013-06-11 15:56:00,
2013-06-11 12:01:00,62.0,62.0,29.61,WSW,247,0.0,0.0,100,0.00,,,0.75,TxWx,2013-06-11 16:01:00,
2013-06-11 12:06:00,63.0,63.0,29.60,WSW,247,0.0,0.0,100,0.00,,,0.75,TxWx,2013-06-11 16:06:00,
2013-06-11 12:11:00,63.0,63.0,29.60,WSW,247,0.0,0.0,100,0.00,,,0.75,TxWx,2013-06-11 16:11:00,
2013-06-11 12:16:00,63.0,63.0,29.60,WSW,247,0.0,0.0,100,0.00,,,0.75,TxWx,2013-06-11 16:16:00,
2013-06-11 12:21:00,64.0,63.0,29.60,WSW,247,0.0,0.0,100,0.00,,,0.75,TxWx,2013-06-11 16:21:00,
2013-06-11 12:27:00,63.0,63.0,29.60,WSW,247,0.0,0.0,100,0.00,,,0.75,TxWx,2013-06-11 16:27:00,
2013-06-11 12:32:00,63.0,63.0,29.60,WSW,247,0.0,0.0,100,0.00,,,0.75,TxWx,2013-06-11 16:32:00,
2013-06-11 12:37:00,64.0,64.0,29.59,WSW,247,0.0,0.0,100,0.00,,,0.75,TxWx,2013-06-11 16:37:00,
2013-06-11 12:42:00,64.0,64.0,29.59,WSW,247,0.0,0.0,100,0.00,,,0.75,TxWx,2013-06-11 16:42:00,
2013-06-11 12:47:00,65.0,65.0,29.58,WSW,247,0.0,0.0,100,0.00,,,0.75,TxWx,2013-06-11 16:47:00,
2013-06-11 12:52:00,65.0,65.0,29.58,WSW,247,0.0,0.0,100,0.00,,,0.75,TxWx,2013-06-11 16:52:00,
2013-06-11 12:57:00,66.0,66.0,29.58,WSW,247,0.0,0.0,100,0.00,,,0.75,TxWx,2013-06-11 16:57:00,
2013-06-11 13:02:00,67.0,67.0,29.58,WSW,247,0.0,0.0,100,0.00,,,0.75,TxWx,2013-06-11 17:02:00,
2013-06-11 13:07:00,66.0,66.0,29.58,WSW,247,0.0,0.0,99,0.00,,,0.75,TxWx,2013-06-11 17:07:00,
2013-06-11 13:12:00,66.0,65.0,29.58,WSW,247,0.0,0.0,98,0.00,,,0.75,TxWx,2013-06-11 17:12:00,
2013-06-11 13:18:00,65.0,64.0,29.58,WSW,247,0.0,0.0,98,0.00,,,0.75,TxWx,2013-06-11 17:18:00,
2013-06-11 13:23:00,66.0,65.0,29.58,WSW,247,0.0,0.0,98,0.00,,,0.75,TxWx,2013-06-11 17:23:00,
2013-06-11 13:28:00,65.0,64.0,29.58,WSW,247,0.0,0.0,98,0.00,,,0.75,TxWx,2013-06-11 17:28:00,
2013-06-11 13:33:00,65.0,64.0,29.57,WSW,247,0.0,0.0,98,0.00,,,0.75,TxWx,2013-06-11 17:33:00,
2013-06-11 13:38:00,66.0,65.0,29.57,WSW,247,0.0,0.0,98,0.00,,,0.75,TxWx,2013-06-11 17:38:00,
2013-06-11 13:43:00,65.0,64.0,29.57,WSW,247,0.0,0.0,98,0.00,,,0.75,TxWx,2013-06-11 17:43:00,
2013-06-11 13:48:00,65.0,64.0,29.57,WSW,247,0.0,0.0,98,0.00,,,0.76,TxWx,2013-06-11 17:48:00,
2013-06-11 13:53:00,65.0,65.0,29.57,WSW,247,0.0,0.0,99,0.60,,,0.78,TxWx,2013-06-11 17:53:00,
2013-06-11 13:58:00,65.0,65.0,29.56,WSW,247,0.0,0.0,99,0.60,,,0.80,TxWx,2013-06-11 17:58:00,
2013-06-11 14:03:00,65.0,65.0,29.56,WSW,247,0.0,0.0,100,0.60,,,0.82,TxWx,2013-06-11 18:03:00,
2013-06-11 14:08:00,65.0,65.0,29.56,WSW,247,0.0,0.0,100,0.60,,,0.82,TxWx,2013-06-11 18:08:00,
2013-06-11 14:13:00,65.0,65.0,29.56,WSW,247,0.0,0.0,100,0.60,,,0.83,TxWx,2013-06-11 18:13:00,
2013-06-11 14:19:00,65.0,65.0,29.55,WSW,247,0.0,0.0,100,0.60,,,0.84,TxWx,2013-06-11 18:19:00,
2013-06-11 14:24:00,65.0,65.0,29.55,WSW,247,0.0,0.0,100,0.60,,,0.84,TxWx,2013-06-11 18:24:00,
2013-06-11 14:29:00,65.0,65.0,29.55,WSW,247,0.0,0.0,100,0.60,,,0.84,TxWx,2013-06-11 18:29:00,
2013-06-11 14:34:00,65.0,65.0,29.55,WSW,247,0.0,0.0,100,0.00,,,0.84,TxWx,2013-06-11 18:34:00,
2013-06-11 14:39:00,65.0,65.0,29.54,WSW,247,0.0,0.0,100,0.00,,,0.84,TxWx,2013-06-11 18:39:00,
2013-06-11 14:44:00,65.0,65.0,29.54,WSW,247,0.0,0.0,100,0.00,,,0.85,TxWx,2013-06-11 18:44:00,
2013-06-11 14:49:00,64.0,64.0,29.54,WSW,247,0.0,0.0,100,0.00,,,0.87,TxWx,2013-06-11 18:49:00,
2013-06-11 14:54:00,65.0,65.0,29.54,WSW,247,0.0,0.0,100,0.60,,,0.88,TxWx,2013-06-11 18:54:00,
2013-06-11 14:59:00,65.0,65.0,29.53,WSW,247,0.0,0.0,100,0.60,,,0.88,TxWx,2013-06-11 18:59:00,
2013-06-11 15:00:00,56.0,55.0,29.59,WSW,247,0.0,0.0,97,0.00,,,0.00,TxWx,2013-06-11 19:00:00,
2013-06-11 15:01:00,56.0,55.0,29.59,WSW,247,0.0,0.0,97,0.00,,,0.00,TxWx,2013-06-11 19:01:00,
2013-06-11 15:02:00,57.0,55.0,29.58,WSW,247,0.0,0.0,97,0.00,,,0.00,TxWx,2013-06-11 19:02:00,
2013-06-11 15:03:00,57.0,56.0,29.58,WSW,247,0.0,0.0,97,0.00,,,0.00,TxWx,2013-06-11 19:03:00,
2013-06-11 15:04:00,65.0,65.0,29.53,WSW,247,0.0,0.0,100,0.60,,,0.88,TxWx,2013-06-11 19:04:00,
2013-06-11 15:05:00,56.0,55.0,29.59,WSW,247,0.0,0.0,97,0.00,,,0.00,TxWx,2013-06-11 19:05:00,
2013-06-11 15:06:00,56.0,55.0,29.58,WSW,247,0.0,0.0,97,0.00,,,0.00,TxWx,2013-06-11 19:06:00,
2013-06-11 15:07:00,57.0,56.0,29.59,WSW,247,0.0,0.0,97,0.00,,,0.00,TxWx,2013-06-11 19:07:00,
2013-06-11 15:08:00,56.0,55.0,29.59,WSW,247,0.0,0.0,97,0.00,,,0.00,TxWx,2013-06-11 19:08:00,
2013-06-11 15:09:00,65.0,65.0,29.52,WSW,247,0.0,0.0,100,0.60,,,0.88,TxWx,2013-06-11 19:09:00,
2013-06-11 15:10:00,57.0,56.0,29.58,WSW,247,0.0,0.0,98,0.00,,,0.00,TxWx,2013-06-11 19:10:00,
2013-06-11 15:14:00,65.0,65.0,29.52,WSW,247,0.0,0.0,100,0.00,,,0.88,TxWx,2013-06-11 19:14:00,
2013-06-11 15:19:00,65.0,65.0,29.52,WSW,247,0.0,0.0,100,0.00,,,0.88,TxWx,2013-06-11 19:19:00,
2013-06-11 15:25:00,65.0,65.0,29.52,WSW,247,0.0,0.0,100,0.00,,,0.88,TxWx,2013-06-11 19:25:00,
2013-06-11 15:29:00,56.0,55.0,29.59,WSW,247,0.0,0.0,97,0.00,,,0.00,TxWx,2013-06-11 19:29:00,
2013-06-11 15:30:00,65.0,65.0,29.52,WSW,247,0.0,0.0,100,0.00,,,0.88,TxWx,2013-06-11 19:30:00,
2013-06-11 15:31:00,56.0,55.0,29.59,WSW,247,0.0,0.0,97,0.00,,,0.00,TxWx,2013-06-11 19:31:00,
2013-06-11 15:35:00,65.0,65.0,29.53,WSW,247,0.0,0.0,100,0.00,,,0.88,TxWx,2013-06-11 19:35:00,
2013-06-11 15:40:00,64.0,64.0,29.52,WSW,247,0.0,0.0,100,0.00,,,0.89,TxWx,2013-06-11 19:40:00,
2013-06-11 15:45:00,64.0,64.0,29.53,WSW,247,0.0,0.0,100,0.00,,,0.89,TxWx,2013-06-11 19:45:00,
2013-06-11 15:50:00,64.0,64.0,29.52,WSW,247,0.0,0.0,100,0.60,,,0.89,TxWx,2013-06-11 19:50:00,
2013-06-11 15:55:00,63.0,63.0,29.52,WSW,247,0.0,0.0,100,0.60,,,0.91,TxWx,2013-06-11 19:55:00,
2013-06-11 16:00:00,63.0,63.0,29.53,WSW,247,0.0,0.0,100,0.60,,,0.92,TxWx,2013-06-11 20:00:00,
2013-06-11 16:05:00,62.0,62.0,29.54,WSW,247,0.0,0.0,100,0.60,,,1.04,TxWx,2013-06-11 20:05:00,
2013-06-11 16:10:00,62.0,62.0,29.54,WSW,247,0.0,0.0,100,0.60,,,1.08,TxWx,2013-06-11 20:10:00,
2013-06-11 16:15:00,62.0,62.0,29.54,WSW,247,0.0,0.0,100,0.60,,,1.11,TxWx,2013-06-11 20:15:00,
2013-06-11 16:20:00,62.0,62.0,29.55,WSW,247,0.0,0.0,100,0.60,,,1.14,TxWx,2013-06-11 20:20:00,
2013-06-11 16:25:00,62.0,62.0,29.54,WSW,247,0.0,0.0,100,0.60,,,1.14,TxWx,2013-06-11 20:25:00,
2013-06-11 16:31:00,62.0,62.0,29.55,WSW,247,0.0,0.0,100,0.60,,,1.14,TxWx,2013-06-11 20:31:00,
2013-06-11 16:36:00,62.0,62.0,29.54,WSW,247,0.0,0.0,100,0.60,,,1.14,TxWx,2013-06-11 20:36:00,
2013-06-11 16:41:00,62.0,62.0,29.55,WSW,247,0.0,0.0,100,0.00,,,1.14,TxWx,2013-06-11 20:41:00,
2013-06-11 16:44:00,56.0,55.0,29.60,WSW,247,0.0,0.0,95,0.00,,,0.00,TxWx,2013-06-11 20:44:00,
2013-06-11 16:45:00,56.0,55.0,29.60,WSW,247,0.0,0.0,95,0.00,,,0.00,TxWx,2013-06-11 20:45:00,
2013-06-11 16:46:00,62.0,62.0,29.54,WSW,247,0.0,0.0,100,0.00,,,1.14,TxWx,2013-06-11 20:46:00,
2013-06-11 16:51:00,62.0,62.0,29.55,WSW,247,0.0,0.0,100,0.00,,,1.14,TxWx,2013-06-11 20:51:00,
2013-06-11 16:56:00,62.0,62.0,29.55,WSW,247,0.0,0.0,100,0.00,,,1.14,TxWx,2013-06-11 20:56:00,
2013-06-11 17:01:00,62.0,62.0,29.55,WSW,247,0.0,0.0,100,0.00,,,1.14,TxWx,2013-06-11 21:01:00,
2013-06-11 17:06:00,61.0,61.0,29.55,WSW,247,0.0,0.0,100,0.00,,,1.15,TxWx,2013-06-11 21:06:00,
2013-06-11 17:08:00,55.0,54.0,29.59,WSW,247,0.0,0.0,96,0.00,,,0.00,TxWx,2013-06-11 21:08:00,
2013-06-11 17:09:00,55.0,54.0,29.59,WSW,247,0.0,0.0,96,0.00,,,0.00,TxWx,2013-06-11 21:09:00,
2013-06-11 17:10:00,55.0,54.0,29.60,WSW,247,0.0,0.0,96,0.00,,,0.00,TxWx,2013-06-11 21:10:00,
2013-06-11 17:11:00,62.0,62.0,29.55,WSW,247,0.0,0.0,100,0.60,,,1.15,TxWx,2013-06-11 21:11:00,
2013-06-11 17:12:00,55.0,54.0,29.59,WSW,247,0.0,0.0,96,0.00,,,0.00,TxWx,2013-06-11 21:12:00,
2013-06-11 17:13:00,55.0,54.0,29.59,WSW,247,0.0,0.0,96,0.00,,,0.00,TxWx,2013-06-11 21:13:00,
2013-06-11 17:15:00,55.0,54.0,29.59,WSW,247,0.0,0.0,96,0.00,,,0.00,TxWx,2013-06-11 21:15:00,
2013-06-11 17:16:00,62.0,62.0,29.55,WSW,247,0.0,0.0,100,0.60,,,1.15,TxWx,2013-06-11 21:16:00,
2013-06-11 17:17:00,55.0,54.0,29.59,WSW,247,0.0,0.0,96,0.00,,,0.00,TxWx,2013-06-11 21:17:00,
2013-06-11 17:18:00,55.0,54.0,29.59,WSW,247,0.0,0.0,96,0.00,,,0.00,TxWx,2013-06-11 21:18:00,
2013-06-11 17:19:00,55.0,54.0,29.59,WSW,247,0.0,0.0,96,0.00,,,0.00,TxWx,2013-06-11 21:19:00,
2013-06-11 17:21:00,55.0,54.0,29.59,WSW,247,0.0,0.0,96,0.00,,,0.00,TxWx,2013-06-11 21:21:00,
2013-06-11 17:22:00,62.0,62.0,29.55,WSW,247,0.0,0.0,100,0.00,,,1.15,TxWx,2013-06-11 21:22:00,
2013-06-11 17:23:00,55.0,54.0,29.59,WSW,247,0.0,0.0,96,0.00,,,0.00,TxWx,2013-06-11 21:23:00,
2013-06-11 17:24:00,55.0,54.0,29.59,WSW,247,0.0,0.0,96,0.00,,,0.00,TxWx,2013-06-11 21:24:00,
2013-06-11 17:25:00,55.0,54.0,29.59,WSW,247,0.0,0.0,96,0.00,,,0.00,TxWx,2013-06-11 21:25:00,
2013-06-11 17:26:00,55.0,54.0,29.59,WSW,247,0.0,0.0,96,0.00,,,0.00,TxWx,2013-06-11 21:26:00,
2013-06-11 17:27:00,62.0,62.0,29.55,WSW,247,0.0,0.0,100,0.00,,,1.15,TxWx,2013-06-11 21:27:00,
2013-06-11 17:30:00,55.0,54.0,29.60,WSW,247,0.0,0.0,96,0.00,,,0.00,TxWx,2013-06-11 21:30:00,
2013-06-11 17:31:00,55.0,54.0,29.60,WSW,247,0.0,0.0,96,0.00,,,0.00,TxWx,2013-06-11 21:31:00,
2013-06-11 17:32:00,62.0,62.0,29.55,WSW,247,0.0,0.0,100,0.00,,,1.15,TxWx,2013-06-11 21:32:00,
2013-06-11 17:33:00,55.0,54.0,29.59,WSW,247,0.0,0.0,97,0.00,,,0.00,TxWx,2013-06-11 21:33:00,
2013-06-11 17:34:00,55.0,54.0,29.60,WSW,247,0.0,0.0,97,0.00,,,0.00,TxWx,2013-06-11 21:34:00,
2013-06-11 17:35:00,55.0,54.0,29.59,WSW,247,0.0,0.0,97,0.00,,,0.00,TxWx,2013-06-11 21:35:00,
2013-06-11 17:36:00,55.0,54.0,29.60,WSW,247,0.0,0.0,97,0.00,,,0.00,TxWx,2013-06-11 21:36:00,
2013-06-11 17:37:00,62.0,62.0,29.55,WSW,247,0.0,0.0,100,0.00,,,1.15,TxWx,2013-06-11 21:37:00,
2013-06-11 17:42:00,62.0,62.0,29.55,WSW,247,0.0,0.0,100,0.00,,,1.15,TxWx,2013-06-11 21:42:00,
2013-06-11 17:44:00,55.0,54.0,29.60,WSW,247,0.0,0.0,97,0.00,,,0.00,TxWx,2013-06-11 21:44:00,
2013-06-11 17:45:00,55.0,54.0,29.60,WSW,247,0.0,0.0,97,0.00,,,0.00,TxWx,2013-06-11 21:45:00,
2013-06-11 17:46:00,55.0,54.0,29.60,WSW,247,0.0,0.0,97,0.00,,,0.00,TxWx,2013-06-11 21:46:00,
2013-06-11 17:47:00,62.0,62.0,29.55,WSW,247,0.0,0.0,100,0.00,,,1.16,TxWx,2013-06-11 21:47:00,
2013-06-11 17:48:00,55.0,54.0,29.60,WSW,247,0.0,0.0,97,0.00,,,0.00,TxWx,2013-06-11 21:48:00,
2013-06-11 17:49:00,55.0,54.0,29.60,WSW,247,0.0,0.0,97,0.00,,,0.00,TxWx,2013-06-11 21:49:00,
2013-06-11 17:51:00,55.0,54.0,29.60,WSW,247,0.0,0.0,97,0.00,,,0.00,TxWx,2013-06-11 21:51:00,
2013-06-11 17:52:00,62.0,62.0,29.55,WSW,247,0.0,0.0,100,0.60,,,1.16,TxWx,2013-06-11 21:52:00,
2013-06-11 17:53:00,55.0,54.0,29.59,WSW,247,0.0,0.0,97,0.00,,,0.00,TxWx,2013-06-11 21:53:00,
2013-06-11 17:54:00,55.0,54.0,29.60,WSW,247,0.0,0.0,97,0.00,,,0.00,TxWx,2013-06-11 21:54:00,
2013-06-11 17:56:00,55.0,54.0,29.59,WSW,247,0.0,0.0,97,0.00,,,0.00,TxWx,2013-06-11 21:56:00,
2013-06-11 17:57:00,62.0,62.0,29.55,WSW,247,0.0,0.0,100,0.60,,,1.16,TxWx,2013-06-11 21:57:00,
2013-06-11 18:02:00,62.0,62.0,29.55,WSW,247,0.0,0.0,100,0.00,,,1.16,TxWx,2013-06-11 22:02:00,
2013-06-11 18:07:00,62.0,62.0,29.55,WSW,247,0.0,0.0,100,0.00,,,1.16,TxWx,2013-06-11 22:07:00,
2013-06-11 18:12:00,62.0,62.0,29.55,WSW,247,0.0,0.0,100,0.00,,,1.16,TxWx,2013-06-11 22:12:00,
2013-06-11 18:17:00,62.0,62.0,29.55,WSW,247,0.0,0.0,100,0.00,,,1.16,TxWx,2013-06-11 22:17:00,
2013-06-11 18:22:00,61.0,61.0,29.55,WSW,247,0.0,0.0,100,0.00,,,1.16,TxWx,2013-06-11 22:22:00,
2013-06-11 18:28:00,61.0,61.0,29.55,WSW,247,0.0,0.0,100,0.00,,,1.16,TxWx,2013-06-11 22:28:00,
2013-06-11 18:33:00,61.0,61.0,29.55,WSW,247,0.0,0.0,100,0.00,,,1.16,TxWx,2013-06-11 22:33:00,
2013-06-11 18:38:00,61.0,61.0,29.55,WSW,247,0.0,0.0,100,0.00,,,1.16,TxWx,2013-06-11 22:38:00,
2013-06-11 18:43:00,61.0,61.0,29.56,WSW,247,0.0,0.0,100,0.00,,,1.16,TxWx,2013-06-11 22:43:00,
2013-06-11 18:48:00,61.0,61.0,29.56,WSW,247,0.0,0.0,100,0.00,,,1.16,TxWx,2013-06-11 22:48:00,
2013-06-11 18:53:00,61.0,61.0,29.56,WSW,247,0.0,0.0,100,0.00,,,1.16,TxWx,2013-06-11 22:53:00,
2013-06-11 18:58:00,61.0,61.0,29.56,WSW,247,0.0,0.0,100,0.00,,,1.16,TxWx,2013-06-11 22:58:00,
2013-06-11 19:03:00,61.0,61.0,29.56,WSW,247,0.0,0.0,100,0.00,,,1.16,TxWx,2013-06-11 23:03:00,
2013-06-11 19:08:00,62.0,62.0,29.56,WSW,247,0.0,0.0,100,0.00,,,1.16,TxWx,2013-06-11 23:08:00,
2013-06-11 19:15:00,61.0,61.0,29.56,WSW,247,0.0,0.0,100,0.00,,,1.16,TxWx,2013-06-11 23:15:00,
2013-06-11 19:20:00,61.0,61.0,29.56,WSW,247,0.0,0.0,100,0.00,,,1.16,TxWx,2013-06-11 23:20:00,
2013-06-11 19:25:00,61.0,61.0,29.56,WSW,247,0.0,0.0,100,0.00,,,1.16,TxWx,2013-06-11 23:25:00,
2013-06-11 19:30:00,61.0,61.0,29.56,WSW,247,0.0,0.0,100,0.00,,,1.16,TxWx,2013-06-11 23:30:00,
2013-06-11 19:35:00,61.0,61.0,29.56,WSW,247,0.0,0.0,100,0.00,,,1.16,TxWx,2013-06-11 23:35:00,
2013-06-11 19:40:00,61.0,61.0,29.56,WSW,247,0.0,0.0,100,0.00,,,1.16,TxWx,2013-06-11 23:40:00,
2013-06-11 19:45:00,61.0,61.0,29.56,WSW,247,0.0,0.0,99,0.00,,,1.16,TxWx,2013-06-11 23:45:00,
2013-06-11 19:50:00,61.0,61.0,29.56,WSW,247,0.0,0.0,99,0.00,,,1.16,TxWx,2013-06-11 23:50:00,
2013-06-11 19:56:00,61.0,61.0,29.56,WSW,247,0.0,0.0,99,0.00,,,1.16,TxWx,2013-06-11 23:56:00,
2013-06-11 20:01:00,61.0,60.0,29.56,WSW,247,0.0,0.0,98,0.00,,,1.16,TxWx,2013-06-12 00:01:00,
2013-06-11 20:02:00,54.0,53.0,29.63,WSW,247,0.0,0.0,97,0.00,,,0.00,TxWx,2013-06-12 00:02:00,
2013-06-11 20:03:00,54.0,53.0,29.63,WSW,247,0.0,0.0,97,0.00,,,0.00,TxWx,2013-06-12 00:03:00,
2013-06-11 20:06:00,61.0,60.0,29.56,WSW,247,0.0,0.0,98,0.00,,,1.16,TxWx,2013-06-12 00:06:00,
2013-06-11 20:11:00,61.0,60.0,29.57,WSW,247,0.0,0.0,98,0.00,,,1.16,TxWx,2013-06-12 00:11:00,
2013-06-11 20:16:00,61.0,60.0,29.57,WSW,247,0.0,0.0,98,0.00,,,1.16,TxWx,2013-06-12 00:16:00,
2013-06-11 20:21:00,61.0,60.0,29.57,WSW,247,0.0,0.0,98,0.00,,,1.16,TxWx,2013-06-12 00:21:00,
2013-06-11 20:26:00,60.0,59.0,29.57,WSW,247,0.0,0.0,97,0.00,,,1.16,TxWx,2013-06-12 00:26:00,
2013-06-11 20:31:00,60.0,59.0,29.57,WSW,247,0.0,0.0,97,0.00,,,1.16,TxWx,2013-06-12 00:31:00,
2013-06-11 20:36:00,60.0,59.0,29.57,WSW,247,0.0,0.0,97,0.00,,,1.16,TxWx,2013-06-12 00:36:00,
2013-06-11 20:41:00,60.0,59.0,29.57,WSW,247,0.0,0.0,97,0.00,,,1.16,TxWx,2013-06-12 00:41:00,
2013-06-11 20:43:00,53.0,52.0,29.65,WSW,247,0.0,0.0,97,0.00,,,0.00,TxWx,2013-06-12 00:43:00,
2013-06-11 20:44:00,53.0,52.0,29.65,WSW,247,0.0,0.0,97,0.00,,,0.00,TxWx,2013-06-12 00:44:00,
2013-06-11 20:45:00,53.0,52.0,29.65,WSW,247,0.0,0.0,97,0.00,,,0.00,TxWx,2013-06-12 00:45:00,
2013-06-11 20:46:00,60.0,59.0,29.57,WSW,247,0.0,0.0,96,0.00,,,1.16,TxWx,2013-06-12 00:46:00,
2013-06-11 20:47:00,53.0,52.0,29.65,WSW,247,0.0,0.0,97,0.00,,,0.00,TxWx,2013-06-12 00:47:00,
2013-06-11 20:48:00,53.0,52.0,29.65,WSW,247,0.0,0.0,97,0.00,,,0.00,TxWx,2013-06-12 00:48:00,
2013-06-11 20:51:00,60.0,59.0,29.58,WSW,247,0.0,0.0,96,0.00,,,1.16,TxWx,2013-06-12 00:51:00,
2013-06-11 20:57:00,60.0,59.0,29.58,WSW,247,0.0,0.0,96,0.00,,,1.16,TxWx,2013-06-12 00:57:00,
2013-06-11 21:02:00,60.0,59.0,29.58,WSW,247,0.0,0.0,96,0.00,,,1.16,TxWx,2013-06-12 01:02:00,
2013-06-11 21:07:00,60.0,59.0,29.58,WSW,247,0.0,0.0,96,0.00,,,1.16,TxWx,2013-06-12 01:07:00,
2013-06-11 21:12:00,60.0,59.0,29.58,WSW,247,0.0,0.0,96,0.00,,,1.16,TxWx,2013-06-12 01:12:00,
2013-06-11 21:17:00,60.0,59.0,29.58,WSW,247,0.0,0.0,96,0.00,,,1.16,TxWx,2013-06-12 01:17:00,
2013-06-11 21:22:00,60.0,59.0,29.58,WSW,247,0.0,0.0,96,0.00,,,1.16,TxWx,2013-06-12 01:22:00,
2013-06-11 21:27:00,59.0,58.0,29.59,WSW,247,0.0,0.0,96,0.00,,,1.16,TxWx,2013-06-12 01:27:00,
2013-06-11 21:32:00,59.0,58.0,29.59,WSW,247,0.0,0.0,96,0.00,,,1.16,TxWx,2013-06-12 01:32:00,
2013-06-11 21:37:00,59.0,58.0,29.59,WSW,247,0.0,0.0,96,0.00,,,1.16,TxWx,2013-06-12 01:37:00,
2013-06-11 21:42:00,59.0,58.0,29.59,WSW,247,0.0,0.0,96,0.00,,,1.16,TxWx,2013-06-12 01:42:00,
2013-06-11 21:47:00,59.0,58.0,29.59,WSW,247,0.0,0.0,96,0.00,,,1.16,TxWx,2013-06-12 01:47:00,
2013-06-11 21:52:00,59.0,58.0,29.60,WSW,247,0.0,0.0,96,0.00,,,1.16,TxWx,2013-06-12 01:52:00,
2013-06-11 21:57:00,59.0,58.0,29.60,WSW,247,0.0,0.0,97,0.00,,,1.16,TxWx,2013-06-12 01:57:00,
2013-06-11 22:02:00,59.0,58.0,29.60,WSW,247,0.0,0.0,97,0.00,,,1.16,TxWx,2013-06-12 02:02:00,
2013-06-11 22:07:00,58.0,57.0,29.60,WSW,247,0.0,0.0,96,0.00,,,1.16,TxWx,2013-06-12 02:07:00,
2013-06-11 22:13:00,58.0,57.0,29.60,WSW,247,0.0,0.0,96,0.00,,,1.16,TxWx,2013-06-12 02:13:00,
2013-06-11 22:18:00,58.0,57.0,29.60,WSW,247,0.0,0.0,96,0.00,,,1.16,TxWx,2013-06-12 02:18:00,
2013-06-11 22:23:00,58.0,57.0,29.60,WSW,247,0.0,0.0,96,0.00,,,1.16,TxWx,2013-06-12 02:23:00,
2013-06-11 22:28:00,58.0,57.0,29.60,WSW,247,0.0,0.0,96,0.00,,,1.16,TxWx,2013-06-12 02:28:00,
2013-06-11 22:33:00,58.0,57.0,29.60,WSW,247,0.0,0.0,96,0.00,,,1.16,TxWx,2013-06-12 02:33:00,
2013-06-11 22:38:00,58.0,57.0,29.60,WSW,247,0.0,0.0,96,0.00,,,1.16,TxWx,2013-06-12 02:38:00,
2013-06-11 22:43:00,58.0,57.0,29.59,WSW,247,0.0,0.0,96,0.00,,,1.16,TxWx,2013-06-12 02:43:00,
2013-06-11 22:48:00,58.0,57.0,29.59,WSW,247,0.0,0.0,96,0.00,,,1.16,TxWx,2013-06-12 02:48:00,
2013-06-11 22:53:00,58.0,57.0,29.59,WSW,247,0.0,0.0,96,0.00,,,1.16,TxWx,2013-06-12 02:53:00,
2013-06-11 22:58:00,58.0,57.0,29.59,WSW,247,0.0,0.0,96,0.00,,,1.16,TxWx,2013-06-12 02:58:00,
2013-06-11 23:03:00,58.0,57.0,29.59,WSW,247,0.0,0.0,96,0.00,,,1.16,TxWx,2013-06-12 03:03:00,
2013-06-11 23:08:00,57.0,56.0,29.59,WSW,247,0.0,0.0,96,0.00,,,1.16,TxWx,2013-06-12 03:08:00,
2013-06-11 23:13:00,57.0,56.0,29.59,WSW,247,0.0,0.0,96,0.00,,,1.16,TxWx,2013-06-12 03:13:00,
2013-06-11 23:18:00,57.0,56.0,29.59,WSW,247,0.0,0.0,97,0.00,,,1.16,TxWx,2013-06-12 03:18:00,
2013-06-11 23:23:00,57.0,56.0,29.60,WSW,247,0.0,0.0,97,0.00,,,1.16,TxWx,2013-06-12 03:23:00,
2013-06-11 23:28:00,57.0,56.0,29.60,WSW,247,0.0,0.0,97,0.00,,,1.16,TxWx,2013-06-12 03:28:00,
2013-06-11 23:34:00,57.0,56.0,29.59,WSW,247,0.0,0.0,97,0.00,,,1.16,TxWx,2013-06-12 03:34:00,
2013-06-11 23:39:00,57.0,56.0,29.59,WSW,247,0.0,0.0,97,0.00,,,1.16,TxWx,2013-06-12 03:39:00,
2013-06-11 23:44:00,57.0,56.0,29.59,WSW,247,0.0,0.0,97,0.00,,,1.16,TxWx,2013-06-12 03:44:00,
2013-06-11 23:49:00,57.0,56.0,29.59,WSW,247,0.0,0.0,97,0.00,,,1.16,TxWx,2013-06-12 03:49:00,
2013-06-11 23:54:00,57.0,56.0,29.59,WSW,247,0.0,0.0,97,0.00,,,1.16,TxWx,2013-06-12 03:54:00,
2013-06-11 23:59:00,57.0,56.0,29.59,WSW,247,0.0,0.0,97,0.00,,,1.16,TxWx,2013-06-12 03:59:00,